sensor_id;sensor_type;location;lat;lon;timestamp;temperature;humidity
5881;DHT22;2966;52.598;10.928;2023-02-15T00:00:35;0.80;99.90
5881;DHT22;2966;52.598;10.928;2023-02-15T00:03:02;0.90;99.90
5881;DHT22;2966;52.598;10.928;2023-02-15T00:05:31;1.00;99.90
5881;DHT22;2966;52.598;10.928;2023-02-15T00:07:59;0.90;99.90
5881;DHT22;2966;52.598;10.928;2023-02-15T00:10:26;0.80;99.90
5881;DHT22;2966;52.598;10.928;2023-02-15T00:12:52;0.80;99.90
5881;DHT22;2966;52.598;10.928;2023-02-15T00:15:19;0.70;99.90
5881;DHT22;2966;52.598;10.928;2023-02-15T00:17:46;0.70;99.90
5881;DHT22;2966;52.598;10.928;2023-02-15T00:20:13;0.80;99.90
5881;DHT22;2966;52.598;10.928;2023-02-15T00:22:39;0.90;99.90
5881;DHT22;2966;52.598;10.928;2023-02-15T00:25:08;1.00;99.90
5881;DHT22;2966;52.598;10.928;2023-02-15T00:27:34;1.00;99.90
5881;DHT22;2966;52.598;10.928;2023-02-15T00:30:01;1.00;99.90
5881;DHT22;2966;52.598;10.928;2023-02-15T00:32:28;0.90;99.90
5881;DHT22;2966;52.598;10.928;2023-02-15T00:34:55;0.90;99.90
5881;DHT22;2966;52.598;10.928;2023-02-15T00:37:30;0.90;99.90
5881;DHT22;2966;52.598;10.928;2023-02-15T00:39:59;0.80;99.90
5881;DHT22;2966;52.598;10.928;2023-02-15T00:42:27;0.80;99.90
5881;DHT22;2966;52.598;10.928;2023-02-15T00:44:54;0.80;99.90
5881;DHT22;2966;52.598;10.928;2023-02-15T00:47:23;0.80;99.90
5881;DHT22;2966;52.598;10.928;2023-02-15T00:49:50;0.80;99.90
5881;DHT22;2966;52.598;10.928;2023-02-15T00:52:20;0.70;99.90
5881;DHT22;2966;52.598;10.928;2023-02-15T00:54:47;0.60;99.90
5881;DHT22;2966;52.598;10.928;2023-02-15T00:57:13;0.50;99.90
5881;DHT22;2966;52.598;10.928;2023-02-15T00:59:42;0.40;99.90
5881;DHT22;2966;52.598;10.928;2023-02-15T01:02:08;0.40;99.90
5881;DHT22;2966;52.598;10.928;2023-02-15T01:04:35;0.30;99.90
5881;DHT22;2966;52.598;10.928;2023-02-15T01:07:02;0.20;99.90
5881;DHT22;2966;52.598;10.928;2023-02-15T01:09:29;0.10;99.90
5881;DHT22;2966;52.598;10.928;2023-02-15T01:11:57;0.00;99.90
5881;DHT22;2966;52.598;10.928;2023-02-15T01:14:24;0.00;99.90
5881;DHT22;2966;52.598;10.928;2023-02-15T01:16:54;0.00;99.90
5881;DHT22;2966;52.598;10.928;2023-02-15T01:19:21;0.10;99.90
5881;DHT22;2966;52.598;10.928;2023-02-15T01:21:51;0.20;99.90
5881;DHT22;2966;52.598;10.928;2023-02-15T01:24:17;0.20;99.90
5881;DHT22;2966;52.598;10.928;2023-02-15T01:26:44;0.30;99.90
5881;DHT22;2966;52.598;10.928;2023-02-15T01:29:11;0.20;99.90
5881;DHT22;2966;52.598;10.928;2023-02-15T01:31:38;0.20;99.90
5881;DHT22;2966;52.598;10.928;2023-02-15T01:34:06;0.10;99.90
5881;DHT22;2966;52.598;10.928;2023-02-15T01:36:33;0.20;99.90
5881;DHT22;2966;52.598;10.928;2023-02-15T01:39:00;0.30;99.90
5881;DHT22;2966;52.598;10.928;2023-02-15T01:41:27;0.30;99.90
5881;DHT22;2966;52.598;10.928;2023-02-15T01:43:55;0.30;99.90
5881;DHT22;2966;52.598;10.928;2023-02-15T01:46:26;0.30;99.90
5881;DHT22;2966;52.598;10.928;2023-02-15T01:49:02;0.30;99.90
5881;DHT22;2966;52.598;10.928;2023-02-15T01:51:37;0.30;99.90
5881;DHT22;2966;52.598;10.928;2023-02-15T01:54:11;0.30;99.90
5881;DHT22;2966;52.598;10.928;2023-02-15T01:56:41;0.40;99.90
5881;DHT22;2966;52.598;10.928;2023-02-15T01:59:13;0.40;99.90
5881;DHT22;2966;52.598;10.928;2023-02-15T02:01:41;0.30;99.90
5881;DHT22;2966;52.598;10.928;2023-02-15T02:04:12;0.20;99.90
5881;DHT22;2966;52.598;10.928;2023-02-15T02:06:44;0.10;99.90
5881;DHT22;2966;52.598;10.928;2023-02-15T02:09:11;0.00;99.90
5881;DHT22;2966;52.598;10.928;2023-02-15T02:11:39;-0.10;99.90
5881;DHT22;2966;52.598;10.928;2023-02-15T02:14:07;-0.10;99.90
5881;DHT22;2966;52.598;10.928;2023-02-15T02:16:38;-0.20;99.90
5881;DHT22;2966;52.598;10.928;2023-02-15T02:22:41;-0.30;99.90
5881;DHT22;2966;52.598;10.928;2023-02-15T02:28:25;-0.50;99.90
5881;DHT22;2966;52.598;10.928;2023-02-15T02:31:11;-0.50;99.90
5881;DHT22;2966;52.598;10.928;2023-02-15T02:33:54;-0.50;99.90
5881;DHT22;2966;52.598;10.928;2023-02-15T02:36:28;-0.60;99.90
5881;DHT22;2966;52.598;10.928;2023-02-15T02:39:12;-0.50;99.90
5881;DHT22;2966;52.598;10.928;2023-02-15T02:41:48;-0.60;99.90
5881;DHT22;2966;52.598;10.928;2023-02-15T02:44:19;-0.60;99.90
5881;DHT22;2966;52.598;10.928;2023-02-15T02:46:52;-0.60;99.90
5881;DHT22;2966;52.598;10.928;2023-02-15T02:49:30;-0.60;99.90
5881;DHT22;2966;52.598;10.928;2023-02-15T02:51:59;-0.70;99.90
5881;DHT22;2966;52.598;10.928;2023-02-15T02:54:28;-0.60;99.90
5881;DHT22;2966;52.598;10.928;2023-02-15T02:56:59;-0.50;99.90
5881;DHT22;2966;52.598;10.928;2023-02-15T02:59:30;-0.30;99.90
5881;DHT22;2966;52.598;10.928;2023-02-15T03:02:03;-0.20;99.90
5881;DHT22;2966;52.598;10.928;2023-02-15T03:04:36;-0.10;99.90
5881;DHT22;2966;52.598;10.928;2023-02-15T03:07:06;-0.10;99.90
5881;DHT22;2966;52.598;10.928;2023-02-15T03:09:37;-0.20;99.90
5881;DHT22;2966;52.598;10.928;2023-02-15T03:12:09;-0.20;99.90
5881;DHT22;2966;52.598;10.928;2023-02-15T03:14:39;-0.30;99.90
5881;DHT22;2966;52.598;10.928;2023-02-15T03:17:07;-0.30;99.90
5881;DHT22;2966;52.598;10.928;2023-02-15T03:19:37;-0.40;99.90
5881;DHT22;2966;52.598;10.928;2023-02-15T03:22:07;-0.30;99.90
5881;DHT22;2966;52.598;10.928;2023-02-15T03:24:37;-0.20;99.90
5881;DHT22;2966;52.598;10.928;2023-02-15T03:27:09;-0.20;99.90
5881;DHT22;2966;52.598;10.928;2023-02-15T03:29:38;-0.30;99.90
5881;DHT22;2966;52.598;10.928;2023-02-15T03:32:10;-0.30;99.90
5881;DHT22;2966;52.598;10.928;2023-02-15T03:34:41;-0.30;99.90
5881;DHT22;2966;52.598;10.928;2023-02-15T03:37:13;-0.30;99.90
5881;DHT22;2966;52.598;10.928;2023-02-15T03:39:46;-0.40;99.90
5881;DHT22;2966;52.598;10.928;2023-02-15T03:42:17;-0.40;99.90
5881;DHT22;2966;52.598;10.928;2023-02-15T03:44:50;-0.50;99.90
5881;DHT22;2966;52.598;10.928;2023-02-15T03:47:19;-0.50;99.90
5881;DHT22;2966;52.598;10.928;2023-02-15T03:49:52;-0.50;99.90
5881;DHT22;2966;52.598;10.928;2023-02-15T03:52:21;-0.50;99.90
5881;DHT22;2966;52.598;10.928;2023-02-15T03:54:47;-0.50;99.90
5881;DHT22;2966;52.598;10.928;2023-02-15T03:57:18;-0.60;99.90
5881;DHT22;2966;52.598;10.928;2023-02-15T04:00:09;-0.60;99.90
5881;DHT22;2966;52.598;10.928;2023-02-15T04:03:09;-0.40;99.90
5881;DHT22;2966;52.598;10.928;2023-02-15T04:05:38;-0.30;99.90
5881;DHT22;2966;52.598;10.928;2023-02-15T04:08:06;-0.30;99.90
5881;DHT22;2966;52.598;10.928;2023-02-15T04:10:32;-0.20;99.90
5881;DHT22;2966;52.598;10.928;2023-02-15T04:13:17;-0.20;99.90
5881;DHT22;2966;52.598;10.928;2023-02-15T04:15:44;-0.10;99.90
5881;DHT22;2966;52.598;10.928;2023-02-15T04:18:28;-0.20;99.90
5881;DHT22;2966;52.598;10.928;2023-02-15T04:21:14;-0.20;99.90
5881;DHT22;2966;52.598;10.928;2023-02-15T04:23:58;-0.20;99.90
5881;DHT22;2966;52.598;10.928;2023-02-15T04:26:42;-0.20;99.90
5881;DHT22;2966;52.598;10.928;2023-02-15T04:29:09;-0.20;99.90
5881;DHT22;2966;52.598;10.928;2023-02-15T04:31:36;-0.20;99.90
5881;DHT22;2966;52.598;10.928;2023-02-15T04:34:03;-0.20;99.90
5881;DHT22;2966;52.598;10.928;2023-02-15T04:36:31;-0.20;99.90
5881;DHT22;2966;52.598;10.928;2023-02-15T04:38:57;-0.20;99.90
5881;DHT22;2966;52.598;10.928;2023-02-15T04:41:24;-0.20;99.90
5881;DHT22;2966;52.598;10.928;2023-02-15T04:43:51;-0.20;99.90
5881;DHT22;2966;52.598;10.928;2023-02-15T04:46:17;-0.30;99.90
5881;DHT22;2966;52.598;10.928;2023-02-15T04:48:44;-0.30;99.90
5881;DHT22;2966;52.598;10.928;2023-02-15T04:51:13;-0.40;99.90
5881;DHT22;2966;52.598;10.928;2023-02-15T04:53:41;-0.40;99.90
5881;DHT22;2966;52.598;10.928;2023-02-15T04:56:08;-0.50;99.90
5881;DHT22;2966;52.598;10.928;2023-02-15T04:58:34;-0.50;99.90
5881;DHT22;2966;52.598;10.928;2023-02-15T05:01:02;-0.60;99.90
5881;DHT22;2966;52.598;10.928;2023-02-15T05:03:33;-0.60;99.90
5881;DHT22;2966;52.598;10.928;2023-02-15T05:06:03;-0.70;99.90
5881;DHT22;2966;52.598;10.928;2023-02-15T05:08:30;-0.70;99.90
5881;DHT22;2966;52.598;10.928;2023-02-15T05:10:58;-0.60;99.90
5881;DHT22;2966;52.598;10.928;2023-02-15T05:13:25;-0.70;99.90
5881;DHT22;2966;52.598;10.928;2023-02-15T05:15:52;-0.70;99.90
5881;DHT22;2966;52.598;10.928;2023-02-15T05:18:20;-0.70;99.90
5881;DHT22;2966;52.598;10.928;2023-02-15T05:20:49;-0.60;99.90
5881;DHT22;2966;52.598;10.928;2023-02-15T05:23:19;-0.60;99.90
5881;DHT22;2966;52.598;10.928;2023-02-15T05:25:49;-0.70;99.90
5881;DHT22;2966;52.598;10.928;2023-02-15T05:28:35;-0.80;99.90
5881;DHT22;2966;52.598;10.928;2023-02-15T05:31:14;-0.70;99.90
5881;DHT22;2966;52.598;10.928;2023-02-15T05:33:41;-0.70;99.90
5881;DHT22;2966;52.598;10.928;2023-02-15T05:36:09;-0.80;99.90
5881;DHT22;2966;52.598;10.928;2023-02-15T05:38:36;-0.80;99.90
5881;DHT22;2966;52.598;10.928;2023-02-15T05:41:03;-0.90;99.90
5881;DHT22;2966;52.598;10.928;2023-02-15T05:43:31;-0.80;99.90
5881;DHT22;2966;52.598;10.928;2023-02-15T05:46:00;-0.80;99.90
5881;DHT22;2966;52.598;10.928;2023-02-15T05:48:29;-0.80;99.90
5881;DHT22;2966;52.598;10.928;2023-02-15T05:50:57;-0.80;99.90
5881;DHT22;2966;52.598;10.928;2023-02-15T05:53:26;-0.80;99.90
5881;DHT22;2966;52.598;10.928;2023-02-15T05:55:54;-0.90;99.90
5881;DHT22;2966;52.598;10.928;2023-02-15T05:58:24;-0.90;99.90
5881;DHT22;2966;52.598;10.928;2023-02-15T06:00:52;-0.90;99.90
5881;DHT22;2966;52.598;10.928;2023-02-15T06:03:21;-0.90;99.90
5881;DHT22;2966;52.598;10.928;2023-02-15T06:05:48;-1.00;99.90
5881;DHT22;2966;52.598;10.928;2023-02-15T06:08:15;-1.00;99.90
5881;DHT22;2966;52.598;10.928;2023-02-15T06:10:41;-1.10;99.90
5881;DHT22;2966;52.598;10.928;2023-02-15T06:13:08;-1.10;99.90
5881;DHT22;2966;52.598;10.928;2023-02-15T06:15:35;-1.00;99.90
5881;DHT22;2966;52.598;10.928;2023-02-15T06:18:02;-1.10;99.90
5881;DHT22;2966;52.598;10.928;2023-02-15T06:20:30;-1.20;99.90
5881;DHT22;2966;52.598;10.928;2023-02-15T06:22:57;-1.20;99.90
5881;DHT22;2966;52.598;10.928;2023-02-15T06:25:24;-1.20;99.90
5881;DHT22;2966;52.598;10.928;2023-02-15T06:27:51;-1.20;99.90
5881;DHT22;2966;52.598;10.928;2023-02-15T06:30:17;-1.20;99.90
5881;DHT22;2966;52.598;10.928;2023-02-15T06:32:44;-1.20;99.90
5881;DHT22;2966;52.598;10.928;2023-02-15T06:35:11;-1.20;99.90
5881;DHT22;2966;52.598;10.928;2023-02-15T06:37:42;-1.20;99.90
5881;DHT22;2966;52.598;10.928;2023-02-15T06:40:11;-1.20;99.90
5881;DHT22;2966;52.598;10.928;2023-02-15T06:42:38;-1.40;99.90
5881;DHT22;2966;52.598;10.928;2023-02-15T06:45:05;-1.40;99.90
5881;DHT22;2966;52.598;10.928;2023-02-15T06:47:32;-1.40;99.90
5881;DHT22;2966;52.598;10.928;2023-02-15T06:49:59;-1.40;99.90
5881;DHT22;2966;52.598;10.928;2023-02-15T06:52:25;-1.40;99.90
5881;DHT22;2966;52.598;10.928;2023-02-15T06:54:53;-1.30;99.90
5881;DHT22;2966;52.598;10.928;2023-02-15T06:57:20;-1.30;99.90
5881;DHT22;2966;52.598;10.928;2023-02-15T06:59:47;-1.30;99.90
5881;DHT22;2966;52.598;10.928;2023-02-15T07:02:14;-1.30;99.90
5881;DHT22;2966;52.598;10.928;2023-02-15T07:04:41;-1.30;99.90
5881;DHT22;2966;52.598;10.928;2023-02-15T07:07:08;-1.40;99.90
5881;DHT22;2966;52.598;10.928;2023-02-15T07:09:35;-1.40;99.90
5881;DHT22;2966;52.598;10.928;2023-02-15T07:12:04;-1.40;99.90
5881;DHT22;2966;52.598;10.928;2023-02-15T07:14:49;-1.40;99.90
5881;DHT22;2966;52.598;10.928;2023-02-15T07:17:15;-1.30;99.90
5881;DHT22;2966;52.598;10.928;2023-02-15T07:19:42;-1.30;99.90
5881;DHT22;2966;52.598;10.928;2023-02-15T07:22:09;-1.30;99.90
5881;DHT22;2966;52.598;10.928;2023-02-15T07:24:39;-1.30;99.90
5881;DHT22;2966;52.598;10.928;2023-02-15T07:27:07;-1.40;99.90
5881;DHT22;2966;52.598;10.928;2023-02-15T07:29:34;-1.40;99.90
5881;DHT22;2966;52.598;10.928;2023-02-15T07:32:01;-1.50;99.90
5881;DHT22;2966;52.598;10.928;2023-02-15T07:34:27;-1.40;99.90
5881;DHT22;2966;52.598;10.928;2023-02-15T07:36:54;-1.40;99.90
5881;DHT22;2966;52.598;10.928;2023-02-15T07:39:21;-1.40;99.90
5881;DHT22;2966;52.598;10.928;2023-02-15T07:41:48;-1.30;99.90
5881;DHT22;2966;52.598;10.928;2023-02-15T07:44:16;-1.30;99.90
5881;DHT22;2966;52.598;10.928;2023-02-15T07:46:42;-1.20;99.90
5881;DHT22;2966;52.598;10.928;2023-02-15T07:49:09;-1.20;99.90
5881;DHT22;2966;52.598;10.928;2023-02-15T07:51:36;-1.20;99.90
5881;DHT22;2966;52.598;10.928;2023-02-15T07:54:03;-1.20;99.90
5881;DHT22;2966;52.598;10.928;2023-02-15T07:56:29;-1.20;99.90
5881;DHT22;2966;52.598;10.928;2023-02-15T07:58:58;-1.10;99.90
5881;DHT22;2966;52.598;10.928;2023-02-15T08:01:31;-1.10;99.90
5881;DHT22;2966;52.598;10.928;2023-02-15T08:03:58;-1.00;99.90
5881;DHT22;2966;52.598;10.928;2023-02-15T08:06:27;-0.90;99.90
5881;DHT22;2966;52.598;10.928;2023-02-15T08:08:54;-1.10;99.90
5881;DHT22;2966;52.598;10.928;2023-02-15T08:11:22;-1.00;99.90
5881;DHT22;2966;52.598;10.928;2023-02-15T08:13:55;-0.80;99.90
5881;DHT22;2966;52.598;10.928;2023-02-15T08:16:27;-0.80;99.90
5881;DHT22;2966;52.598;10.928;2023-02-15T08:18:56;-0.90;99.90
5881;DHT22;2966;52.598;10.928;2023-02-15T08:21:25;-0.80;99.90
5881;DHT22;2966;52.598;10.928;2023-02-15T08:23:52;-0.80;99.90
5881;DHT22;2966;52.598;10.928;2023-02-15T08:26:20;-0.70;99.90
5881;DHT22;2966;52.598;10.928;2023-02-15T08:28:46;-0.70;99.90
5881;DHT22;2966;52.598;10.928;2023-02-15T08:31:14;-0.60;99.90
5881;DHT22;2966;52.598;10.928;2023-02-15T08:33:42;-0.60;99.90
5881;DHT22;2966;52.598;10.928;2023-02-15T08:36:12;-0.70;99.90
5881;DHT22;2966;52.598;10.928;2023-02-15T08:38:41;-0.70;99.90
5881;DHT22;2966;52.598;10.928;2023-02-15T08:41:09;-0.60;99.90
5881;DHT22;2966;52.598;10.928;2023-02-15T08:43:37;-0.60;99.90
5881;DHT22;2966;52.598;10.928;2023-02-15T08:46:04;-0.50;99.90
5881;DHT22;2966;52.598;10.928;2023-02-15T08:48:31;-0.50;99.90
5881;DHT22;2966;52.598;10.928;2023-02-15T08:51:05;-0.40;99.90
5881;DHT22;2966;52.598;10.928;2023-02-15T08:53:34;-0.40;99.90
5881;DHT22;2966;52.598;10.928;2023-02-15T08:56:00;-0.30;99.90
5881;DHT22;2966;52.598;10.928;2023-02-15T08:58:28;-0.20;99.90
5881;DHT22;2966;52.598;10.928;2023-02-15T09:00:56;-0.20;99.90
5881;DHT22;2966;52.598;10.928;2023-02-15T09:03:23;-0.20;99.90
5881;DHT22;2966;52.598;10.928;2023-02-15T09:05:50;-0.30;99.90
5881;DHT22;2966;52.598;10.928;2023-02-15T09:08:16;-0.20;99.90
5881;DHT22;2966;52.598;10.928;2023-02-15T09:10:44;0.00;99.90
5881;DHT22;2966;52.598;10.928;2023-02-15T09:13:11;0.10;99.90
5881;DHT22;2966;52.598;10.928;2023-02-15T09:15:38;0.10;99.90
5881;DHT22;2966;52.598;10.928;2023-02-15T09:18:08;0.20;99.90
5881;DHT22;2966;52.598;10.928;2023-02-15T09:20:35;0.40;99.90
5881;DHT22;2966;52.598;10.928;2023-02-15T09:23:02;0.30;99.90
5881;DHT22;2966;52.598;10.928;2023-02-15T09:25:32;0.30;99.90
5881;DHT22;2966;52.598;10.928;2023-02-15T09:28:01;0.40;99.90
5881;DHT22;2966;52.598;10.928;2023-02-15T09:30:28;0.50;99.90
5881;DHT22;2966;52.598;10.928;2023-02-15T09:32:54;0.60;99.90
5881;DHT22;2966;52.598;10.928;2023-02-15T09:35:24;0.70;99.90
5881;DHT22;2966;52.598;10.928;2023-02-15T09:37:51;0.70;99.90
5881;DHT22;2966;52.598;10.928;2023-02-15T09:40:18;0.80;99.90
5881;DHT22;2966;52.598;10.928;2023-02-15T09:43:09;0.80;99.90
5881;DHT22;2966;52.598;10.928;2023-02-15T09:45:54;1.00;99.90
5881;DHT22;2966;52.598;10.928;2023-02-15T09:48:39;1.00;99.90
5881;DHT22;2966;52.598;10.928;2023-02-15T09:51:27;1.10;99.90
5881;DHT22;2966;52.598;10.928;2023-02-15T09:54:09;1.30;99.90
5881;DHT22;2966;52.598;10.928;2023-02-15T09:56:40;1.40;99.90
5881;DHT22;2966;52.598;10.928;2023-02-15T09:59:14;1.40;99.90
5881;DHT22;2966;52.598;10.928;2023-02-15T10:01:52;1.50;99.90
5881;DHT22;2966;52.598;10.928;2023-02-15T10:04:34;1.60;99.90
5881;DHT22;2966;52.598;10.928;2023-02-15T10:07:15;1.60;99.90
5881;DHT22;2966;52.598;10.928;2023-02-15T10:09:57;1.50;99.90
5881;DHT22;2966;52.598;10.928;2023-02-15T10:12:53;1.60;99.90
5881;DHT22;2966;52.598;10.928;2023-02-15T10:15:37;1.80;99.90
5881;DHT22;2966;52.598;10.928;2023-02-15T10:18:31;1.90;99.90
5881;DHT22;2966;52.598;10.928;2023-02-15T10:21:04;1.70;99.90
5881;DHT22;2966;52.598;10.928;2023-02-15T10:23:45;1.80;99.90
5881;DHT22;2966;52.598;10.928;2023-02-15T10:26:18;2.00;99.90
5881;DHT22;2966;52.598;10.928;2023-02-15T10:28:48;2.10;99.90
5881;DHT22;2966;52.598;10.928;2023-02-15T10:31:25;2.00;99.90
5881;DHT22;2966;52.598;10.928;2023-02-15T10:34:11;2.20;99.90
5881;DHT22;2966;52.598;10.928;2023-02-15T10:36:57;2.30;99.90
5881;DHT22;2966;52.598;10.928;2023-02-15T10:39:33;2.30;99.90
5881;DHT22;2966;52.598;10.928;2023-02-15T10:42:08;2.40;99.90
5881;DHT22;2966;52.598;10.928;2023-02-15T10:44:47;2.50;99.90
5881;DHT22;2966;52.598;10.928;2023-02-15T10:47:41;2.70;99.90
5881;DHT22;2966;52.598;10.928;2023-02-15T10:50:29;2.90;99.90
5881;DHT22;2966;52.598;10.928;2023-02-15T10:53:09;3.00;99.90
5881;DHT22;2966;52.598;10.928;2023-02-15T10:55:47;3.10;99.90
5881;DHT22;2966;52.598;10.928;2023-02-15T10:58:26;3.10;99.90
5881;DHT22;2966;52.598;10.928;2023-02-15T11:01:01;3.30;99.90
5881;DHT22;2966;52.598;10.928;2023-02-15T11:03:40;3.40;99.90
5881;DHT22;2966;52.598;10.928;2023-02-15T11:06:09;3.50;99.90
5881;DHT22;2966;52.598;10.928;2023-02-15T11:08:40;3.60;99.90
5881;DHT22;2966;52.598;10.928;2023-02-15T11:11:10;3.60;99.90
5881;DHT22;2966;52.598;10.928;2023-02-15T11:13:43;3.70;99.90
5881;DHT22;2966;52.598;10.928;2023-02-15T11:16:17;3.70;99.90
5881;DHT22;2966;52.598;10.928;2023-02-15T11:18:51;3.80;99.90
5881;DHT22;2966;52.598;10.928;2023-02-15T11:21:22;3.80;99.90
5881;DHT22;2966;52.598;10.928;2023-02-15T11:23:51;3.90;99.90
5881;DHT22;2966;52.598;10.928;2023-02-15T11:26:24;3.80;99.90
5881;DHT22;2966;52.598;10.928;2023-02-15T11:28:56;3.80;99.90
5881;DHT22;2966;52.598;10.928;2023-02-15T11:31:26;3.80;99.90
5881;DHT22;2966;52.598;10.928;2023-02-15T11:33:56;3.80;99.90
5881;DHT22;2966;52.598;10.928;2023-02-15T11:36:27;3.90;99.90
5881;DHT22;2966;52.598;10.928;2023-02-15T11:39:00;4.00;99.90
5881;DHT22;2966;52.598;10.928;2023-02-15T11:41:32;4.10;99.90
5881;DHT22;2966;52.598;10.928;2023-02-15T11:44:06;4.20;99.90
5881;DHT22;2966;52.598;10.928;2023-02-15T11:46:34;4.30;99.90
5881;DHT22;2966;52.598;10.928;2023-02-15T11:49:07;4.40;99.90
5881;DHT22;2966;52.598;10.928;2023-02-15T11:51:35;4.50;99.90
5881;DHT22;2966;52.598;10.928;2023-02-15T11:54:03;4.60;99.90
5881;DHT22;2966;52.598;10.928;2023-02-15T11:56:31;4.80;99.90
5881;DHT22;2966;52.598;10.928;2023-02-15T11:59:03;4.70;99.90
5881;DHT22;2966;52.598;10.928;2023-02-15T12:01:33;4.80;99.90
5881;DHT22;2966;52.598;10.928;2023-02-15T12:04:06;4.90;99.90
5881;DHT22;2966;52.598;10.928;2023-02-15T12:06:42;5.00;99.90
5881;DHT22;2966;52.598;10.928;2023-02-15T12:09:17;5.00;99.90
5881;DHT22;2966;52.598;10.928;2023-02-15T12:11:46;5.10;99.90
5881;DHT22;2966;52.598;10.928;2023-02-15T12:14:13;5.20;99.90
5881;DHT22;2966;52.598;10.928;2023-02-15T12:16:44;5.10;99.90
5881;DHT22;2966;52.598;10.928;2023-02-15T12:19:28;5.10;99.90
5881;DHT22;2966;52.598;10.928;2023-02-15T12:21:56;5.20;99.90
5881;DHT22;2966;52.598;10.928;2023-02-15T12:24:26;5.40;99.90
5881;DHT22;2966;52.598;10.928;2023-02-15T12:26:59;5.50;99.90
5881;DHT22;2966;52.598;10.928;2023-02-15T12:29:29;5.60;99.90
5881;DHT22;2966;52.598;10.928;2023-02-15T12:31:57;5.70;99.90
5881;DHT22;2966;52.598;10.928;2023-02-15T12:34:32;5.70;99.90
5881;DHT22;2966;52.598;10.928;2023-02-15T12:37:10;5.90;99.90
5881;DHT22;2966;52.598;10.928;2023-02-15T12:39:51;6.00;99.90
5881;DHT22;2966;52.598;10.928;2023-02-15T12:42:18;6.00;99.90
5881;DHT22;2966;52.598;10.928;2023-02-15T12:44:59;6.00;99.90
5881;DHT22;2966;52.598;10.928;2023-02-15T12:47:27;6.10;99.90
5881;DHT22;2966;52.598;10.928;2023-02-15T12:50:10;6.20;99.90
5881;DHT22;2966;52.598;10.928;2023-02-15T12:52:43;6.30;99.90
5881;DHT22;2966;52.598;10.928;2023-02-15T12:55:18;6.60;99.90
5881;DHT22;2966;52.598;10.928;2023-02-15T12:57:47;6.70;99.90
5881;DHT22;2966;52.598;10.928;2023-02-15T13:00:27;6.80;99.90
5881;DHT22;2966;52.598;10.928;2023-02-15T13:02:57;6.90;99.90
5881;DHT22;2966;52.598;10.928;2023-02-15T13:05:33;6.90;99.90
5881;DHT22;2966;52.598;10.928;2023-02-15T13:08:03;7.10;99.90
5881;DHT22;2966;52.598;10.928;2023-02-15T13:10:39;7.10;99.90
5881;DHT22;2966;52.598;10.928;2023-02-15T13:13:10;7.20;99.90
5881;DHT22;2966;52.598;10.928;2023-02-15T13:15:39;7.20;99.90
5881;DHT22;2966;52.598;10.928;2023-02-15T13:18:13;7.30;99.90
5881;DHT22;2966;52.598;10.928;2023-02-15T13:20:43;7.30;99.90
5881;DHT22;2966;52.598;10.928;2023-02-15T13:23:23;7.50;99.90
5881;DHT22;2966;52.598;10.928;2023-02-15T13:25:53;7.70;99.90
5881;DHT22;2966;52.598;10.928;2023-02-15T13:28:23;7.70;99.90
5881;DHT22;2966;52.598;10.928;2023-02-15T13:30:52;7.80;99.90
5881;DHT22;2966;52.598;10.928;2023-02-15T13:33:23;7.90;99.90
5881;DHT22;2966;52.598;10.928;2023-02-15T13:36:05;7.80;99.90
5881;DHT22;2966;52.598;10.928;2023-02-15T13:38:45;7.80;99.90
5881;DHT22;2966;52.598;10.928;2023-02-15T13:41:19;7.80;99.90
5881;DHT22;2966;52.598;10.928;2023-02-15T13:43:55;8.00;99.90
5881;DHT22;2966;52.598;10.928;2023-02-15T13:46:50;8.00;99.90
5881;DHT22;2966;52.598;10.928;2023-02-15T13:49:26;8.00;99.90
5881;DHT22;2966;52.598;10.928;2023-02-15T13:52:03;8.00;99.90
5881;DHT22;2966;52.598;10.928;2023-02-15T13:54:42;8.10;99.90
5881;DHT22;2966;52.598;10.928;2023-02-15T14:00:18;8.40;99.90
5881;DHT22;2966;52.598;10.928;2023-02-15T14:06:17;8.40;99.90
5881;DHT22;2966;52.598;10.928;2023-02-15T14:08:57;8.30;99.90
5881;DHT22;2966;52.598;10.928;2023-02-15T14:11:35;8.30;99.90
5881;DHT22;2966;52.598;10.928;2023-02-15T14:14:31;8.50;99.90
5881;DHT22;2966;52.598;10.928;2023-02-15T14:17:11;8.50;99.90
5881;DHT22;2966;52.598;10.928;2023-02-15T14:19:44;8.50;99.90
5881;DHT22;2966;52.598;10.928;2023-02-15T14:22:20;8.80;99.90
5881;DHT22;2966;52.598;10.928;2023-02-15T14:24:59;8.80;99.90
5881;DHT22;2966;52.598;10.928;2023-02-15T14:27:45;8.70;99.90
5881;DHT22;2966;52.598;10.928;2023-02-15T14:30:19;8.70;99.90
5881;DHT22;2966;52.598;10.928;2023-02-15T14:32:50;8.60;99.90
5881;DHT22;2966;52.598;10.928;2023-02-15T14:35:20;8.50;99.90
5881;DHT22;2966;52.598;10.928;2023-02-15T14:37:52;8.50;99.90
5881;DHT22;2966;52.598;10.928;2023-02-15T14:40:31;8.40;99.90
5881;DHT22;2966;52.598;10.928;2023-02-15T14:43:24;8.30;99.90
5881;DHT22;2966;52.598;10.928;2023-02-15T14:45:55;8.20;99.90
5881;DHT22;2966;52.598;10.928;2023-02-15T14:48:25;8.20;99.90
5881;DHT22;2966;52.598;10.928;2023-02-15T14:50:58;8.20;99.90
5881;DHT22;2966;52.598;10.928;2023-02-15T14:53:34;8.10;99.90
5881;DHT22;2966;52.598;10.928;2023-02-15T14:56:20;8.10;99.90
5881;DHT22;2966;52.598;10.928;2023-02-15T14:59:15;8.10;99.90
5881;DHT22;2966;52.598;10.928;2023-02-15T15:02:03;8.10;99.90
5881;DHT22;2966;52.598;10.928;2023-02-15T15:04:38;8.10;99.90
5881;DHT22;2966;52.598;10.928;2023-02-15T15:07:17;8.10;99.90
5881;DHT22;2966;52.598;10.928;2023-02-15T15:09:48;8.00;99.90
5881;DHT22;2966;52.598;10.928;2023-02-15T15:12:39;8.00;99.90
5881;DHT22;2966;52.598;10.928;2023-02-15T15:15:07;8.00;99.90
5881;DHT22;2966;52.598;10.928;2023-02-15T15:17:56;8.00;99.90
5881;DHT22;2966;52.598;10.928;2023-02-15T15:20:41;7.90;99.90
5881;DHT22;2966;52.598;10.928;2023-02-15T15:23:39;7.90;99.90
5881;DHT22;2966;52.598;10.928;2023-02-15T15:26:25;7.90;99.90
5881;DHT22;2966;52.598;10.928;2023-02-15T15:28:56;7.90;99.90
5881;DHT22;2966;52.598;10.928;2023-02-15T15:31:27;7.80;99.90
5881;DHT22;2966;52.598;10.928;2023-02-15T15:34:17;7.70;99.90
5881;DHT22;2966;52.598;10.928;2023-02-15T15:40:15;7.60;99.90
5881;DHT22;2966;52.598;10.928;2023-02-15T15:42:50;7.50;99.90
5881;DHT22;2966;52.598;10.928;2023-02-15T15:45:42;7.40;99.90
5881;DHT22;2966;52.598;10.928;2023-02-15T15:48:30;7.40;99.90
5881;DHT22;2966;52.598;10.928;2023-02-15T15:51:00;7.30;99.90
5881;DHT22;2966;52.598;10.928;2023-02-15T15:53:29;7.30;99.90
5881;DHT22;2966;52.598;10.928;2023-02-15T15:56:00;7.20;99.90
5881;DHT22;2966;52.598;10.928;2023-02-15T15:58:28;7.20;99.90
5881;DHT22;2966;52.598;10.928;2023-02-15T16:01:00;7.10;99.90
5881;DHT22;2966;52.598;10.928;2023-02-15T16:03:29;7.00;99.90
5881;DHT22;2966;52.598;10.928;2023-02-15T16:05:56;6.90;99.90
5881;DHT22;2966;52.598;10.928;2023-02-15T16:08:27;6.80;99.90
5881;DHT22;2966;52.598;10.928;2023-02-15T16:10:58;6.70;99.90
5881;DHT22;2966;52.598;10.928;2023-02-15T16:13:25;6.60;99.90
5881;DHT22;2966;52.598;10.928;2023-02-15T16:15:53;6.60;99.90
5881;DHT22;2966;52.598;10.928;2023-02-15T16:18:26;6.50;99.90
5881;DHT22;2966;52.598;10.928;2023-02-15T16:20:55;6.40;99.90
5881;DHT22;2966;52.598;10.928;2023-02-15T16:23:36;6.30;99.90
5881;DHT22;2966;52.598;10.928;2023-02-15T16:26:13;6.10;99.90
5881;DHT22;2966;52.598;10.928;2023-02-15T16:28:48;6.00;99.90
5881;DHT22;2966;52.598;10.928;2023-02-15T16:31:16;5.80;99.90
5881;DHT22;2966;52.598;10.928;2023-02-15T16:33:45;5.70;99.90
5881;DHT22;2966;52.598;10.928;2023-02-15T16:36:19;5.60;99.90
5881;DHT22;2966;52.598;10.928;2023-02-15T16:39:17;5.50;99.90
5881;DHT22;2966;52.598;10.928;2023-02-15T16:41:44;5.40;99.90